Time;durP1;ratioP1;P1;durP2;ratioP2;P2;SDS_P1;SDS_P2;PMS_P1;PMS_P2;Temp;Humidity;BMP_temperature;BMP_pressure;BME280_temperature;BME280_humidity;BME280_pressure;Samples;Min_cycle;Max_cycle;Signal;HPM_P1;HPM_P2
2021/05/25 00:04:58;;;;;;;1999.90;999.90;;;;;;;17.88;50.77;100501.00;15800381;28;20048;-61
2021/05/25 00:12:30;;;;;;;;;;;;;;;17.84;51.35;100517.91;15767702;28;20044;-61
2021/05/25 00:20:04;;;;;;;1999.90;999.90;;;;;;;17.52;54.59;100530.81;15801538;28;20354;-59
2021/05/25 00:27:36;;;;;;;1999.90;999.90;;;;;;;17.33;57.54;100540.25;15801102;28;20416;-61
2021/05/25 00:35:11;;;;;;;1999.90;999.90;;;;;;;16.72;60.77;100544.19;15810614;28;20115;-62
2021/05/25 00:42:45;;;;;;;1999.90;999.90;;;;;;;16.45;63.34;100548.97;15812818;28;20560;-61
2021/05/25 00:50:19;;;;;;;1999.90;999.90;;;;;;;16.25;65.90;100538.94;15794308;28;20127;-62
2021/05/25 00:57:52;;;;;;;1999.90;999.90;;;;;;;16.00;67.75;100533.69;15812099;28;20044;-62
2021/05/25 01:05:25;;;;;;;1999.90;999.90;;;;;;;16.23;67.89;100521.63;15793607;28;20044;-61
2021/05/25 01:12:59;;;;;;;1999.90;999.90;;;;;;;16.29;68.38;100534.22;15811557;28;20091;-62
2021/05/25 01:20:34;;;;;;;1999.90;999.90;;;;;;;16.14;68.57;100531.13;15793071;28;20162;-63
2021/05/25 01:28:10;;;;;;;1999.90;999.90;;;;;;;16.31;69.23;100529.81;15810959;28;20453;-62
2021/05/25 01:35:42;;;;;;;1999.90;999.90;;;;;;;16.31;69.78;100526.19;15810895;28;20497;-61
2021/05/25 01:43:14;;;;;;;1999.90;999.90;;;;;;;16.07;69.38;100541.47;15773897;28;20382;-62
2021/05/25 01:50:46;;;;;;;1999.90;999.90;;;;;;;15.82;69.71;100529.75;15808583;28;20044;-60
2021/05/25 01:58:20;;;;;;;1999.90;999.90;;;;;;;15.50;71.76;100503.78;15807845;28;20044;-61
2021/05/25 02:05:52;;;;;;;1999.90;999.90;;;;;;;15.30;72.67;100478.47;15789560;28;20040;-60
2021/05/25 02:13:26;;;;;;;1999.90;999.90;;;;;;;15.20;72.83;100484.69;15789251;28;20039;-60
2021/05/25 02:21:00;;;;;;;1999.90;999.90;;;;;;;15.31;72.51;100470.88;15806597;28;20126;-61
2021/05/25 02:28:33;;;;;;;1999.90;999.90;;;;;;;15.25;72.23;100489.22;15806159;28;20040;-62
2021/05/25 02:36:06;;;;;;;1999.90;999.90;;;;;;;15.41;72.03;100495.56;15787836;28;20048;-62
2021/05/25 02:43:38;;;;;;;1999.90;999.90;;;;;;;15.44;72.23;100517.34;15805981;28;20044;-61
2021/05/25 02:51:10;;;;;;;1999.90;999.90;;;;;;;15.41;72.13;100511.63;15788758;28;20048;-61
2021/05/25 02:58:42;;;;;;;1999.90;999.90;;;;;;;14.93;74.01;100500.59;15804186;28;20066;-62
2021/05/25 03:06:14;;;;;;;1999.90;999.90;;;;;;;15.19;73.70;100494.31;15804477;28;20119;-62
2021/05/25 03:13:47;;;;;;;1999.90;999.90;;;;;;;15.20;73.99;100495.94;15787146;28;20048;-62
2021/05/25 03:21:18;;;;;;;1999.90;999.90;;;;;;;15.29;73.04;100521.03;15804108;28;20071;-63
2021/05/25 03:28:51;;;;;;;1999.90;999.90;;;;;;;15.25;73.42;100522.97;15803521;28;20101;-60
2021/05/25 03:36:22;;;;;;;1999.90;999.90;;;;;;;15.20;72.94;100515.63;15802625;28;20044;-61
2021/05/25 03:43:55;;;;;;;1999.90;999.90;;;;;;;15.23;72.92;100502.84;15784641;28;20044;-62
2021/05/25 03:51:26;;;;;;;1999.90;999.90;;;;;;;15.20;73.28;100512.81;15802090;28;20515;-61
2021/05/25 03:58:59;;;;;;;1999.90;999.90;;;;;;;15.28;73.08;100514.59;15800813;28;20044;-61
2021/05/25 04:06:30;;;;;;;1999.90;999.90;;;;;;;15.38;72.57;100513.19;15804390;28;20036;-61
2021/05/25 04:14:04;;;;;;;1999.90;999.90;;;;;;;15.27;73.64;100524.22;15796435;28;20044;-61
2021/05/25 04:21:36;;;;;;;1999.90;999.90;;;;;;;15.55;72.80;100526.00;15795738;28;20052;-62
2021/05/25 04:29:08;;;;;;;1999.90;999.90;;;;;;;15.38;72.22;100518.81;15813000;28;20044;-61
2021/05/25 04:36:40;;;;;;;1999.90;999.90;;;;;;;15.18;73.12;100528.41;15794909;28;20460;-61
2021/05/25 04:44:12;;;;;;;1999.90;999.90;;;;;;;15.27;73.04;100545.88;15812870;28;20040;-61
2021/05/25 04:51:46;;;;;;;1999.90;999.90;;;;;;;15.41;72.67;100540.56;15812818;28;20055;-62
2021/05/25 04:59:18;;;;;;;1999.90;999.90;;;;;;;15.26;72.84;100533.00;15794496;28;20044;-63
2021/05/25 05:06:50;;;;;;;1999.90;999.90;;;;;;;15.32;71.17;100539.97;15776043;28;20051;-62
2021/05/25 05:14:22;;;;;;;1999.90;999.90;;;;;;;15.26;71.96;100550.69;15812903;28;20043;-60
2021/05/25 05:21:55;;;;;;;1999.90;999.90;;;;;;;15.32;69.30;100559.66;15811708;28;20052;-63
2021/05/25 05:29:29;;;;;;;1999.90;999.90;;;;;;;15.11;66.54;100570.41;15824421;22;20066;-75
2021/05/25 05:37:04;;;;;;;1999.90;999.90;;;;;;;15.05;65.92;100578.31;15808583;28;20048;-75
2021/05/25 05:44:39;;;;;;;1999.90;999.90;;;;;;;15.31;66.14;100612.22;15822927;22;20087;-62
2021/05/25 05:52:12;;;;;;;1999.90;999.90;;;;;;;15.07;64.59;100608.88;15745237;28;20476;-61
2021/05/25 05:59:46;;;;;;;;;;;;;;;15.17;62.97;100597.06;15747962;28;20040;-61
2021/05/25 06:07:19;;;;;;;1999.90;999.90;;;;;;;14.97;61.97;100605.44;15726633;28;19982;-61
2021/05/25 06:14:52;;;;;;;1999.90;999.90;;;;;;;15.22;61.75;100633.31;15744084;28;20055;-61
2021/05/25 06:22:23;;;;;;;1999.90;999.90;;;;;;;15.41;59.33;100629.72;15726305;28;20039;-61
2021/05/25 06:29:56;;;;;;;1999.90;999.90;;;;;;;15.12;59.45;100606.59;15743199;28;20165;-60
2021/05/25 06:37:28;;;;;;;1999.90;999.90;;;;;;;15.27;58.67;100636.66;15743023;28;20037;-63
2021/05/25 06:45:00;;;;;;;1999.90;999.90;;;;;;;14.93;57.58;100638.25;15742393;28;20501;-63
2021/05/25 06:52:32;;;;;;;1999.90;999.90;;;;;;;15.06;56.66;100621.28;15723789;28;20048;-62
2021/05/25 07:00:06;;;;;;;1999.90;999.90;;;;;;;15.16;55.74;100648.81;15741773;28;20044;-62
2021/05/25 07:07:38;;;;;;;1999.90;999.90;;;;;;;15.36;56.48;100639.25;15722978;28;20516;-61
2021/05/25 07:15:12;;;;;;;1999.90;999.90;;;;;;;15.30;55.97;100644.34;15723018;28;20445;-62
2021/05/25 07:22:44;;;;;;;1999.90;999.90;;;;;;;15.60;55.49;100643.81;15722579;28;20135;-63
2021/05/25 07:30:17;;;;;;;1999.90;999.90;;;;;;;15.52;55.28;100668.13;15722646;28;20044;-61
2021/05/25 07:37:49;;;;;;;;;;;;;;;15.56;53.99;100663.41;15722786;28;20117;-63
2021/05/25 07:45:22;;;;;;;1999.90;999.90;;;;;;;15.09;53.71;100673.94;15739856;28;19926;-63
2021/05/25 07:52:56;;;;;;;1999.90;999.90;;;;;;;15.47;54.50;100688.13;15739792;28;20070;-60
2021/05/25 08:00:29;;;;;;;1999.90;999.90;;;;;;;15.74;52.61;100694.78;15721813;28;20055;-62
2021/05/25 08:08:02;;;;;;;1999.90;999.90;;;;;;;15.27;52.79;100698.50;15720866;28;20088;-61
2021/05/25 08:15:38;;;;;;;1999.90;999.90;;;;;;;15.80;51.85;100696.09;15721325;28;20053;-62
2021/05/25 08:23:12;;;;;;;1999.90;999.90;;;;;;;15.46;51.36;100689.28;15721194;28;20131;-61
2021/05/25 08:30:45;;;;;;;1999.90;999.90;;;;;;;15.47;51.56;100685.28;15721250;28;20366;-63
2021/05/25 08:38:20;;;;;;;1999.90;999.90;;;;;;;15.76;50.14;100683.16;15738903;28;20044;-63
2021/05/25 08:45:54;;;;;;;1999.90;999.90;;;;;;;18.01;47.13;100707.59;15738047;28;20067;-63
2021/05/25 08:53:26;;;;;;;1999.90;999.90;;;;;;;17.43;47.04;100710.81;15742991;28;20052;-64
2021/05/25 09:00:59;;;;;;;1999.90;999.90;;;;;;;18.43;45.82;100702.47;15715765;28;20053;-63
2021/05/25 09:08:31;;;;;;;1999.90;999.90;;;;;;;18.26;45.42;100691.78;15749347;28;20052;-63
2021/05/25 09:16:08;;;;;;;1999.90;999.90;;;;;;;18.32;45.24;100693.06;15749049;28;20048;-64
2021/05/25 09:23:46;;;;;;;1999.90;999.90;;;;;;;17.74;46.15;100702.03;15714251;28;20044;-62
2021/05/25 09:31:25;;;;;;;1999.90;999.90;;;;;;;18.43;44.62;100688.34;15733875;28;20424;-65
2021/05/25 09:39:05;;;;;;;1999.90;999.90;;;;;;;19.89;42.62;100691.53;15757756;28;20116;-62
2021/05/25 09:46:37;;;;;;;1999.90;999.90;;;;;;;19.52;41.85;100689.72;15750402;28;20055;-62
2021/05/25 09:54:22;;;;;;;1999.90;999.90;;;;;;;18.57;43.08;100699.00;15746060;28;20562;-64
2021/05/25 10:01:55;;;;;;;1999.90;999.90;;;;;;;18.96;43.44;100707.03;15745323;28;20074;-63
2021/05/25 10:09:27;;;;;;;1999.90;999.90;;;;;;;19.78;40.14;100711.31;15744361;28;20123;-64
2021/05/25 10:17:01;;;;;;;1999.90;999.90;;;;;;;21.42;39.53;100705.25;15744511;28;20295;-64
2021/05/25 10:24:32;;;;;;;1999.90;999.90;;;;;;;21.61;38.29;100693.47;15726071;28;20036;-63
2021/05/25 10:32:05;;;;;;;1999.90;999.90;;;;;;;19.59;42.36;100681.31;15743451;28;20044;-63
2021/05/25 10:39:39;;;;;;;1999.90;999.90;;;;;;;19.26;40.79;100687.09;15742831;28;20066;-64
2021/05/25 10:47:21;;;;;;;1999.90;999.90;;;;;;;20.28;39.02;100691.72;15724137;28;20044;-63
2021/05/25 10:54:58;;;;;;;1999.90;999.90;;;;;;;21.98;36.50;100684.41;15742090;28;20520;-63
2021/05/25 11:02:51;;;;;;;1999.90;999.90;;;;;;;22.37;35.28;100689.13;15741350;28;20745;-62
2021/05/25 11:10:39;;;;;;;1999.90;999.90;;;;;;;22.34;34.15;100695.66;15741436;28;20125;-64
2021/05/25 11:18:28;;;;;;;1999.90;999.90;;;;;;;20.34;36.56;100718.47;15706248;28;20048;-64
2021/05/25 11:26:00;;;;;;;1999.90;999.90;;;;;;;19.19;38.18;100698.38;15722575;28;20047;-63
2021/05/25 11:33:32;;;;;;;1999.90;999.90;;;;;;;20.40;36.79;100718.88;15740874;28;20489;-65
2021/05/25 11:41:15;;;;;;;1999.90;999.90;;;;;;;19.52;38.14;100697.38;15760398;28;20058;-64
2021/05/25 11:48:47;;;;;;;1999.90;999.90;;;;;;;19.32;39.95;100697.66;15793620;28;20409;-62
2021/05/25 11:56:19;;;;;;;1999.90;999.90;;;;;;;17.84;41.51;100692.88;15784664;28;20050;-64
2021/05/25 12:03:51;;;;;;;1999.90;999.90;;;;;;;20.31;35.98;100698.59;15783324;28;20047;-62
2021/05/25 12:11:35;;;;;;;1999.90;999.90;;;;;;;22.84;32.09;100681.97;15801973;28;20048;-63
2021/05/25 12:19:08;;;;;;;1999.90;999.90;;;;;;;24.73;33.40;100674.16;15801660;28;20052;-65
2021/05/25 12:26:47;;;;;;;1999.90;999.90;;;;;;;23.73;31.76;100666.09;15785304;28;20085;-64
2021/05/25 12:34:21;;;;;;;1999.90;999.90;;;;;;;23.88;32.90;100659.00;15814007;28;20090;-64
2021/05/25 12:41:54;;;;;;;1999.90;999.90;;;;;;;23.52;32.28;100672.81;15796065;28;20063;-64
2021/05/25 12:49:28;;;;;;;1999.90;999.90;;;;;;;19.76;37.08;100665.59;15813151;28;20048;-64
2021/05/25 12:56:59;;;;;;;1999.90;999.90;;;;;;;18.18;40.96;100673.94;15779739;28;20056;-63
2021/05/25 13:04:32;;;;;;;1999.90;999.90;;;;;;;24.65;35.22;100678.34;15814217;28;20044;-63
2021/05/25 13:12:07;;;;;;;1999.90;999.90;;;;;;;21.03;39.72;100675.66;15811268;28;20044;-63
2021/05/25 13:19:40;;;;;;;1999.90;999.90;;;;;;;21.04;41.27;100673.63;15792710;28;20036;-63
2021/05/25 13:27:23;;;;;;;1999.90;999.90;;;;;;;19.91;42.17;100675.00;15810298;28;20040;-63
2021/05/25 13:34:59;;;;;;;1999.90;999.90;;;;;;;19.26;44.46;100661.63;15775566;28;20071;-63
2021/05/25 13:42:31;;;;;;;1999.90;999.90;;;;;;;18.45;45.19;100699.28;15809149;28;20055;-63
2021/05/25 13:50:22;;;;;;;1999.90;999.90;;;;;;;19.27;40.45;100685.88;15790565;28;20450;-63
2021/05/25 13:57:54;;;;;;;1999.90;999.90;;;;;;;19.07;44.84;100678.84;15790103;28;20054;-63
2021/05/25 14:05:26;;;;;;;1999.90;999.90;;;;;;;20.92;43.25;100663.50;15789200;28;20044;-63
2021/05/25 14:12:59;;;;;;;1999.90;999.90;;;;;;;21.03;41.72;100652.97;15807905;28;20077;-63
2021/05/25 14:20:33;;;;;;;1999.90;999.90;;;;;;;20.04;44.60;100635.78;15788887;28;20075;-63
2021/05/25 14:28:05;;;;;;;1999.90;999.90;;;;;;;18.85;45.12;100695.66;15806532;28;20522;-63
2021/05/25 14:35:37;;;;;;;1999.90;999.90;;;;;;;12.95;58.23;100772.25;15806077;28;20067;-63
2021/05/25 14:43:10;;;;;;;1999.90;999.90;;;;;;;13.11;63.59;100760.34;15805704;28;20051;-61
2021/05/25 14:50:43;;;;;;;1999.90;999.90;;;;;;;14.17;64.47;100748.91;15769994;28;20534;-60
2021/05/25 14:58:18;;;;;;;1999.90;999.90;;;;;;;14.13;64.61;100726.34;15786619;28;20055;-62
2021/05/25 15:05:51;;;;;;;1999.90;999.90;;;;;;;15.27;63.50;100714.53;15804537;28;20036;-62
2021/05/25 15:13:23;;;;;;;1999.90;999.90;;;;;;;16.26;62.18;100707.53;15804486;28;20071;-62
2021/05/25 15:20:55;;;;;;;1999.90;999.90;;;;;;;16.53;61.77;100707.63;15804346;28;20054;-63
2021/05/25 15:28:27;;;;;;;1999.90;999.90;;;;;;;16.30;61.41;100691.50;15785445;28;20033;-62
2021/05/25 15:36:00;;;;;;;1999.90;999.90;;;;;;;16.50;59.78;100691.47;15803384;28;20043;-63
2021/05/25 15:43:32;;;;;;;1999.90;999.90;;;;;;;16.29;60.25;100689.06;15802875;28;20142;-62
2021/05/25 15:51:05;;;;;;;1999.90;999.90;;;;;;;16.19;61.25;100679.22;15785576;28;20044;-63
2021/05/25 15:58:36;;;;;;;1999.90;999.90;;;;;;;15.90;64.64;100691.88;15768370;28;20036;-62
2021/05/25 16:06:09;;;;;;;1999.90;999.90;;;;;;;14.52;63.42;100703.41;15793700;28;20385;-63
2021/05/25 16:13:41;;;;;;;1999.90;999.90;;;;;;;14.56;62.41;100681.84;15814877;28;20105;-63
2021/05/25 16:21:13;;;;;;;1999.90;999.90;;;;;;;14.55;63.24;100683.81;15814648;28;20075;-63
2021/05/25 16:28:45;;;;;;;1999.90;999.90;;;;;;;14.35;63.93;100693.28;15813878;28;20047;-63
2021/05/25 16:36:17;;;;;;;1999.90;999.90;;;;;;;14.82;61.71;100701.78;15812594;28;20105;-62
2021/05/25 16:43:49;;;;;;;1999.90;999.90;;;;;;;14.64;60.57;100706.94;15813373;28;20039;-62
2021/05/25 16:51:21;;;;;;;1999.90;999.90;;;;;;;14.29;61.49;100720.00;15794769;28;20059;-61
2021/05/25 16:58:54;;;;;;;1999.90;999.90;;;;;;;14.37;61.91;100722.59;15812281;28;20299;-63
2021/05/25 17:06:34;;;;;;;1999.90;999.90;;;;;;;14.50;60.37;100739.44;15812233;28;20040;-62
2021/05/25 17:21:55;;;;;;;1999.90;999.90;;;;;;;14.68;59.64;100730.31;15812332;28;20055;-63
2021/05/25 17:29:27;;;;;;;1999.90;999.90;;;;;;;14.95;57.73;100733.41;15810788;28;20101;-62
2021/05/25 17:36:59;;;;;;;1999.90;999.90;;;;;;;14.82;58.34;100727.06;15810153;28;20032;-62
2021/05/25 17:44:30;;;;;;;1999.90;999.90;;;;;;;14.62;57.12;100725.34;15774110;28;20173;-62
2021/05/25 17:52:03;;;;;;;1999.90;999.90;;;;;;;14.36;57.96;100726.59;15791609;28;20493;-61
2021/05/25 17:59:35;;;;;;;1999.90;999.90;;;;;;;14.27;56.41;100742.78;15885301;22;20346;-75
2021/05/25 18:07:10;;;;;;;1999.90;999.90;;;;;;;14.19;56.91;100749.38;15901277;28;20043;-75
2021/05/25 18:14:45;;;;;;;1999.90;999.90;;;;;;;14.15;56.41;100737.22;15846109;22;20130;-64
2021/05/25 18:22:17;;;;;;;1999.90;999.90;;;;;;;14.19;57.04;100755.00;15781749;22;20081;-63
2021/05/25 18:29:49;;;;;;;1999.90;999.90;;;;;;;14.23;58.04;100757.88;15869338;28;20043;-63
2021/05/25 18:37:31;;;;;;;1999.90;999.90;;;;;;;13.68;58.68;100770.66;15871224;28;20055;-64
2021/05/25 18:45:03;;;;;;;1999.90;999.90;;;;;;;13.28;62.57;100783.41;15869751;28;20093;-63
2021/05/25 18:52:36;;;;;;;1999.90;999.90;;;;;;;13.29;63.03;100787.84;15868721;28;20055;-63
2021/05/25 19:00:10;;;;;;;1999.90;999.90;;;;;;;13.23;62.26;100802.41;15869628;28;20043;-63
2021/05/25 19:07:42;;;;;;;1999.90;999.90;;;;;;;12.84;62.95;100810.28;15850425;28;20043;-62
2021/05/25 19:15:16;;;;;;;1999.90;999.90;;;;;;;12.74;63.54;100827.53;15867208;28;20071;-63
2021/05/25 19:22:59;;;;;;;1999.90;999.90;;;;;;;12.73;63.48;100839.06;15866377;28;20047;-63
2021/05/25 19:30:31;;;;;;;1999.90;999.90;;;;;;;12.50;63.80;100841.41;15868052;27;20395;-64
2021/05/25 19:38:03;;;;;;;1999.90;999.90;;;;;;;12.87;62.89;100848.78;15866364;28;20051;-63
2021/05/25 19:45:35;;;;;;;1999.90;999.90;;;;;;;12.89;63.16;100866.06;15867498;28;20049;-63
2021/05/25 19:53:07;;;;;;;1999.90;999.90;;;;;;;12.87;63.75;100867.56;15867367;28;20044;-64
2021/05/25 20:00:39;;;;;;;1999.90;999.90;;;;;;;12.83;62.78;100872.25;15867250;28;20054;-63
2021/05/25 20:08:12;;;;;;;1999.90;999.90;;;;;;;12.97;62.92;100884.75;15867794;28;20492;-64
2021/05/25 20:15:43;;;;;;;1999.90;999.90;;;;;;;12.86;62.31;100874.34;15867349;28;20044;-61
2021/05/25 20:23:16;;;;;;;1999.90;999.90;;;;;;;13.05;62.29;100879.44;15866013;28;20653;-62
2021/05/25 20:30:48;;;;;;;1999.90;999.90;;;;;;;12.84;63.13;100877.50;15867703;28;20183;-62
2021/05/25 20:38:20;;;;;;;1999.90;999.90;;;;;;;12.81;63.47;100878.16;15864371;28;20419;-64
2021/05/25 20:45:53;;;;;;;1999.90;999.90;;;;;;;12.73;63.54;100887.47;15864646;28;20056;-63
2021/05/25 20:53:25;;;;;;;1999.90;999.90;;;;;;;12.71;64.14;100890.63;15857508;28;20305;-64
2021/05/25 21:00:57;;;;;;;1999.90;999.90;;;;;;;12.70;63.81;100891.75;15858565;28;20043;-64
2021/05/25 21:08:29;;;;;;;1999.90;999.90;;;;;;;12.61;64.55;100882.66;15875259;28;20488;-63
2021/05/25 21:16:01;;;;;;;1999.90;999.90;;;;;;;12.78;64.08;100883.63;15874059;28;20289;-62
2021/05/25 21:23:33;;;;;;;1999.90;999.90;;;;;;;12.98;63.69;100888.38;15874974;28;20097;-62
2021/05/25 21:31:05;;;;;;;1999.90;999.90;;;;;;;13.07;63.52;100896.69;15874135;28;20035;-62
2021/05/25 21:38:37;;;;;;;1999.90;999.90;;;;;;;12.88;63.99;100892.44;15872893;28;20072;-64
2021/05/25 21:46:10;;;;;;;1999.90;999.90;;;;;;;12.92;63.98;100893.41;15873017;28;20047;-63
2021/05/25 21:53:43;;;;;;;1999.90;999.90;;;;;;;12.86;64.16;100893.94;15874211;28;20112;-62
2021/05/25 22:01:14;;;;;;;1999.90;999.90;;;;;;;12.54;64.48;100875.97;15874079;28;20495;-62
2021/05/25 22:08:46;;;;;;;1999.90;999.90;;;;;;;12.38;64.34;100875.75;15873044;28;20047;-62
2021/05/25 22:16:18;;;;;;;1999.90;999.90;;;;;;;12.19;64.41;100872.59;15872530;28;20101;-62
2021/05/25 22:23:50;;;;;;;1999.90;999.90;;;;;;;12.29;63.79;100875.00;15871332;28;20055;-63
2021/05/25 22:31:22;;;;;;;1999.90;999.90;;;;;;;12.30;63.49;100873.84;15870628;28;20561;-62
2021/05/25 22:38:55;;;;;;;1999.90;999.90;;;;;;;12.37;63.65;100857.31;15853500;28;20055;-63
2021/05/25 22:46:26;;;;;;;1999.90;999.90;;;;;;;12.11;64.33;100858.34;15870172;28;20044;-62
2021/05/25 22:53:59;;;;;;;1999.90;999.90;;;;;;;12.02;64.08;100856.78;15867531;28;20043;-63
2021/05/25 23:01:31;;;;;;;1999.90;999.90;;;;;;;11.86;64.53;100848.13;15868545;28;20070;-61
2021/05/25 23:09:08;;;;;;;1999.90;999.90;;;;;;;11.95;63.91;100837.72;15866498;28;20553;-63
2021/05/25 23:16:40;;;;;;;1999.90;999.90;;;;;;;11.65;64.60;100838.88;15865619;28;20036;-61
2021/05/25 23:24:12;;;;;;;1999.90;999.90;;;;;;;11.76;65.00;100838.13;15868374;28;20036;-62
2021/05/25 23:31:45;;;;;;;1999.90;999.90;;;;;;;11.52;65.37;100841.56;15868411;28;20112;-63
2021/05/25 23:39:18;;;;;;;1999.90;999.90;;;;;;;11.55;65.35;100838.09;15870243;28;20043;-63
2021/05/25 23:46:50;;;;;;;1999.90;999.90;;;;;;;11.58;65.16;100836.63;15876218;28;20067;-62
2021/05/25 23:54:22;;;;;;;1999.90;999.90;;;;;;;11.36;66.00;100825.69;15879084;28;20561;-62
